createdAt,value
2018-12-04T00:01:44.073Z,2.63
2018-12-04T00:04:21.478Z,2.90
2018-12-04T00:07:00.069Z,2.30
2018-12-04T00:09:38.479Z,1.90
2018-12-04T00:12:14.933Z,3.10
2018-12-04T00:14:52.608Z,2.63
2018-12-04T00:17:29.483Z,2.45
2018-12-04T00:20:06.050Z,2.33
2018-12-04T00:22:44.159Z,2.10
2018-12-04T00:25:21.921Z,2.47
2018-12-04T00:27:58.886Z,1.97
2018-12-04T00:54:01.950Z,2.80
2018-12-04T00:56:39.547Z,2.40
2018-12-04T00:59:17.150Z,2.30
2018-12-04T01:01:55.251Z,2.07
2018-12-04T01:04:34.631Z,1.53
2018-12-04T01:07:12.196Z,2.65
2018-12-04T01:09:46.429Z,2.53
2018-12-04T01:12:24.099Z,2.30
2018-12-04T01:15:03.474Z,1.60
2018-12-04T01:17:41.670Z,2.53
2018-12-04T01:20:18.847Z,2.30
2018-12-04T01:22:57.335Z,2.00
2018-12-04T01:25:29.389Z,2.30
2018-12-04T01:27:58.721Z,2.10
2018-12-04T01:30:28.053Z,2.97
2018-12-04T01:32:57.410Z,2.37
2018-12-04T01:35:26.775Z,2.20
2018-12-04T01:37:56.105Z,2.47
2018-12-04T01:40:25.446Z,2.53
2018-12-04T01:45:37.757Z,2.80
2018-12-04T01:48:07.141Z,2.20
2018-12-04T01:50:36.631Z,2.13
2018-12-04T01:53:06.360Z,2.42
2018-12-04T01:55:35.705Z,2.33
2018-12-04T01:58:05.990Z,2.26
2018-12-04T02:00:35.357Z,2.60
2018-12-04T02:03:05.929Z,2.33
2018-12-04T02:05:35.391Z,2.40
2018-12-04T02:08:06.277Z,2.53
2018-12-04T02:10:35.609Z,2.40
2018-12-04T02:13:06.190Z,2.47
2018-12-04T02:15:35.801Z,2.60
2018-12-04T02:18:06.465Z,3.00
2018-12-04T02:20:39.830Z,2.60
2018-12-04T02:23:09.153Z,2.20
2018-12-04T02:25:38.551Z,2.63
2018-12-04T02:28:07.900Z,3.73
2018-12-04T02:30:37.320Z,3.20
2018-12-04T02:33:06.676Z,2.73
2018-12-04T02:35:36.051Z,2.70
2018-12-04T02:38:06.417Z,3.10
2018-12-04T02:40:41.756Z,2.17
2018-12-04T02:43:11.185Z,2.47
2018-12-04T02:45:40.605Z,2.50
2018-12-04T02:48:09.949Z,2.60
2018-12-04T02:50:39.323Z,3.23
2018-12-04T02:53:08.788Z,2.20
2018-12-04T02:55:38.251Z,2.75
2018-12-04T02:58:07.629Z,2.70
2018-12-04T03:00:36.949Z,2.50
2018-12-04T03:03:06.504Z,1.70
2018-12-04T03:05:35.863Z,2.00
2018-12-04T03:08:06.445Z,2.33
2018-12-04T03:10:35.978Z,2.23
2018-12-04T03:13:06.017Z,1.80
2018-12-04T03:15:35.389Z,2.30
2018-12-04T03:18:04.804Z,2.00
2018-12-04T03:20:40.806Z,2.30
2018-12-04T03:23:10.266Z,2.20
2018-12-04T03:25:39.643Z,2.43
2018-12-04T03:28:08.964Z,1.70
2018-12-04T03:30:38.317Z,1.85
2018-12-04T03:33:07.667Z,2.30
2018-12-04T03:38:21.732Z,2.50
2018-12-04T03:40:51.073Z,2.00
2018-12-04T03:43:20.722Z,2.13
2018-12-04T03:45:50.095Z,2.00
2018-12-04T03:48:19.644Z,1.90
2018-12-04T03:50:48.971Z,1.83
2018-12-04T03:56:00.165Z,2.37
2018-12-04T03:58:29.532Z,2.30
2018-12-04T04:00:59.010Z,2.65
2018-12-04T04:03:28.383Z,2.53
2018-12-04T04:05:57.839Z,2.47
2018-12-04T04:11:07.158Z,2.70
2018-12-04T04:13:36.472Z,3.57
2018-12-04T04:16:06.458Z,2.08
2018-12-04T04:18:35.799Z,2.27
2018-12-04T04:21:06.554Z,1.73
2018-12-04T04:23:35.933Z,2.33
2018-12-04T04:26:05.914Z,2.35
2018-12-04T04:31:15.726Z,2.63
2018-12-04T04:33:45.105Z,1.87
2018-12-04T04:36:14.562Z,2.10
2018-12-04T04:38:43.903Z,2.33
2018-12-04T04:41:13.251Z,2.40
2018-12-04T04:43:42.622Z,2.50
2018-12-04T04:46:12.038Z,1.98
2018-12-04T04:48:46.021Z,1.90
2018-12-04T04:51:15.449Z,2.27
2018-12-04T04:53:44.977Z,2.60
2018-12-04T04:56:14.326Z,2.37
2018-12-04T04:58:43.676Z,2.00
2018-12-04T05:01:13.030Z,1.98
2018-12-04T05:03:42.375Z,2.07
2018-12-04T05:06:11.832Z,2.17
2018-12-04T05:08:41.178Z,2.23
2018-12-04T05:11:10.579Z,2.35
2018-12-04T05:13:39.952Z,2.33
2018-12-04T05:16:09.290Z,1.93
2018-12-04T05:18:38.633Z,2.07
2018-12-04T05:21:08.967Z,2.87
2018-12-04T05:23:38.542Z,1.87
2018-12-04T05:26:07.885Z,2.23
2018-12-04T05:28:37.216Z,2.07
2018-12-04T05:31:06.719Z,2.20
2018-12-04T05:33:36.210Z,2.30
2018-12-04T05:36:06.307Z,2.72
2018-12-04T05:38:35.640Z,2.67
2018-12-04T05:41:06.206Z,2.27
2018-12-04T05:43:35.555Z,2.20
2018-12-04T05:46:05.990Z,1.82
2018-12-04T05:48:35.405Z,2.10
2018-12-04T05:51:04.789Z,2.20
2018-12-04T05:53:36.702Z,2.60
2018-12-04T05:56:10.470Z,1.97
2018-12-04T05:58:39.872Z,2.07
2018-12-04T06:01:09.231Z,2.27
2018-12-04T06:03:38.618Z,2.37
2018-12-04T06:06:07.970Z,2.10
2018-12-04T06:08:37.376Z,1.80
2018-12-04T06:11:06.827Z,2.43
2018-12-04T06:13:36.229Z,1.50
2018-12-04T06:16:06.215Z,1.60
2018-12-04T06:18:35.581Z,1.43
2018-12-04T06:21:06.187Z,1.57
2018-12-04T06:23:35.753Z,1.93
2018-12-04T06:26:06.427Z,1.87
2018-12-04T06:28:35.840Z,1.50
2018-12-04T06:31:06.081Z,1.37
2018-12-04T06:33:35.527Z,1.63
2018-12-04T06:36:06.230Z,1.60
2018-12-04T06:38:36.108Z,1.83
2018-12-04T06:41:06.825Z,2.37
2018-12-04T06:43:36.163Z,1.50
2018-12-04T06:46:06.228Z,1.52
2018-12-04T06:51:16.232Z,1.50
2018-12-04T06:53:45.730Z,1.73
2018-12-04T06:56:15.044Z,1.60
2018-12-04T06:58:44.396Z,1.47
2018-12-04T07:01:13.836Z,1.75
2018-12-04T07:03:43.253Z,1.87
2018-12-04T07:06:12.585Z,2.00
2018-12-04T07:08:42.088Z,1.90
2018-12-04T07:11:11.436Z,2.10
2018-12-04T07:16:21.508Z,1.63
2018-12-04T07:18:50.904Z,2.20
2018-12-04T07:21:20.323Z,2.03
2018-12-04T07:23:49.697Z,1.80
2018-12-04T07:26:19.056Z,1.73
2018-12-04T07:28:48.428Z,2.23
2018-12-04T07:31:17.760Z,1.80
2018-12-04T07:33:47.216Z,1.60
2018-12-04T07:36:16.564Z,1.90
2018-12-04T07:38:45.933Z,2.00
2018-12-04T07:41:15.309Z,3.02
2018-12-04T07:43:44.717Z,2.10
2018-12-04T07:46:14.071Z,1.90
2018-12-04T07:48:43.406Z,2.37
2018-12-04T07:51:12.757Z,2.37
2018-12-04T07:53:42.129Z,2.37
2018-12-04T07:56:11.601Z,2.30
2018-12-04T07:58:41.033Z,2.70
2018-12-04T08:01:10.360Z,3.23
2018-12-04T08:03:39.714Z,2.40
2018-12-04T08:06:11.635Z,1.90
2018-12-04T08:08:40.993Z,2.43
2018-12-04T08:11:10.308Z,2.52
2018-12-04T08:13:39.625Z,2.60
2018-12-04T08:16:08.971Z,3.50
2018-12-04T08:18:38.311Z,3.03
2018-12-04T08:21:07.662Z,2.97
2018-12-04T08:23:36.985Z,3.17
2018-12-04T08:26:06.321Z,3.43
2018-12-04T08:28:35.651Z,2.30
2018-12-04T08:31:06.242Z,2.97
2018-12-04T08:33:35.617Z,2.47
2018-12-04T08:36:06.112Z,3.30
2018-12-04T08:38:35.485Z,3.80
2018-12-04T08:41:06.087Z,3.17
2018-12-04T08:43:35.425Z,2.60
2018-12-04T08:46:05.985Z,2.67
2018-12-04T08:48:35.469Z,2.70
2018-12-04T08:51:06.129Z,2.80
2018-12-04T08:53:35.471Z,3.60
2018-12-04T08:56:04.889Z,3.60
2018-12-04T08:58:34.218Z,4.97
2018-12-04T09:01:03.545Z,4.20
2018-12-04T09:03:32.874Z,4.30
2018-12-04T09:06:02.216Z,4.40
2018-12-04T09:08:31.571Z,4.90
2018-12-04T09:11:00.922Z,5.23
2018-12-04T09:13:30.433Z,3.80
2018-12-04T09:15:59.890Z,3.60
2018-12-04T09:18:29.242Z,3.25
2018-12-04T09:20:58.710Z,2.97
2018-12-04T09:23:28.169Z,3.00
2018-12-04T09:25:57.552Z,3.80
2018-12-04T09:28:27.113Z,2.87
2018-12-04T09:30:56.615Z,2.63
2018-12-04T09:33:25.928Z,2.50
2018-12-04T09:35:55.239Z,3.27
2018-12-04T09:38:24.753Z,2.40
2018-12-04T09:40:54.094Z,4.20
2018-12-04T09:43:23.482Z,3.10
2018-12-04T09:45:52.868Z,2.83
2018-12-04T09:48:22.238Z,2.90
2018-12-04T09:50:51.600Z,2.70
2018-12-04T09:53:25.191Z,2.37
2018-12-04T09:58:36.923Z,2.37
2018-12-04T10:01:06.477Z,2.67
2018-12-04T10:03:35.828Z,2.90
2018-12-04T10:06:06.392Z,2.93
2018-12-04T10:08:35.716Z,2.13
2018-12-04T10:11:06.308Z,2.00
2018-12-04T10:13:35.646Z,2.13
2018-12-04T10:16:06.425Z,2.90
2018-12-04T10:18:35.785Z,2.17
2018-12-04T10:21:06.201Z,2.90
2018-12-04T10:23:35.542Z,2.47
2018-12-04T10:26:04.968Z,2.90
2018-12-04T10:28:34.304Z,2.77
2018-12-04T10:31:10.152Z,3.63
2018-12-04T10:33:39.704Z,2.77
2018-12-04T10:36:09.128Z,2.27
2018-12-04T10:38:38.468Z,2.60
2018-12-04T10:41:07.768Z,2.80
2018-12-04T10:43:37.111Z,3.40
2018-12-04T10:46:06.539Z,2.40
2018-12-04T10:48:35.962Z,2.80
2018-12-04T10:51:06.105Z,2.50
2018-12-04T10:53:35.441Z,3.13
2018-12-04T10:56:06.108Z,2.77
2018-12-04T10:58:35.463Z,2.67
2018-12-04T11:01:10.419Z,2.50
2018-12-04T11:03:40.035Z,2.40
2018-12-04T11:06:09.758Z,2.40
2018-12-04T11:08:39.547Z,2.30
2018-12-04T11:11:09.185Z,2.47
2018-12-04T11:13:38.853Z,1.93
2018-12-04T11:16:10.467Z,2.22
2018-12-04T11:18:39.854Z,2.53
2018-12-04T11:21:09.215Z,2.27
2018-12-04T11:23:38.563Z,2.80
2018-12-04T11:26:07.914Z,2.77
2018-12-04T11:28:37.323Z,2.90
2018-12-04T11:31:06.745Z,2.90
2018-12-04T11:33:36.201Z,1.87
2018-12-04T11:36:06.201Z,2.50
2018-12-04T11:38:35.565Z,1.97
2018-12-04T11:41:06.165Z,2.37
2018-12-04T11:43:35.509Z,2.07
2018-12-04T11:46:06.115Z,3.00
2018-12-04T11:48:35.580Z,2.70
2018-12-04T11:51:06.136Z,2.67
2018-12-04T11:56:16.909Z,2.00
2018-12-04T11:58:46.906Z,2.37
2018-12-04T12:01:24.311Z,2.40
2018-12-04T12:03:53.633Z,2.97
2018-12-04T12:06:23.112Z,2.77
2018-12-04T12:08:52.706Z,2.73
2018-12-04T12:11:24.144Z,2.27
2018-12-04T12:13:53.569Z,2.10
2018-12-04T12:16:23.147Z,2.00
2018-12-04T12:18:52.584Z,2.43
2018-12-04T12:21:25.117Z,2.70
2018-12-04T12:23:54.464Z,2.13
2018-12-04T12:26:23.830Z,2.27
2018-12-04T12:28:53.217Z,2.52
2018-12-04T12:31:22.661Z,2.77
2018-12-04T12:33:52.065Z,2.90
2018-12-04T12:36:21.511Z,2.47
2018-12-04T12:38:50.833Z,1.80
2018-12-04T12:41:21.403Z,2.10
2018-12-04T12:43:50.933Z,2.27
2018-12-04T12:46:20.358Z,2.10
2018-12-04T12:48:49.820Z,2.30
2018-12-04T12:51:19.217Z,2.40
2018-12-04T12:53:49.368Z,2.03
2018-12-04T12:56:18.802Z,2.10
2018-12-04T12:58:48.199Z,2.02
2018-12-04T13:01:21.930Z,1.77
2018-12-04T13:03:51.330Z,2.10
2018-12-04T13:06:20.741Z,1.73
2018-12-04T13:08:50.103Z,1.57
2018-12-04T13:11:20.749Z,2.40
2018-12-04T13:13:50.122Z,2.00
2018-12-04T13:16:19.630Z,2.47
2018-12-04T13:18:49.024Z,1.87
2018-12-04T13:21:19.271Z,1.75
2018-12-04T13:23:48.703Z,1.67
2018-12-04T13:26:18.061Z,2.22
2018-12-04T13:28:47.444Z,2.10
2018-12-04T13:31:16.841Z,1.70
2018-12-04T13:33:46.948Z,2.13
2018-12-04T13:36:16.250Z,1.45
2018-12-04T13:38:45.637Z,1.70
2018-12-04T13:41:15.001Z,1.80
2018-12-04T13:43:44.396Z,2.20
2018-12-04T13:46:13.770Z,2.15
2018-12-04T13:48:43.171Z,1.70
2018-12-04T13:51:12.530Z,1.72
2018-12-04T13:53:42.041Z,3.17
2018-12-04T13:56:12.165Z,2.00
2018-12-04T13:58:42.857Z,2.70
2018-12-04T14:01:12.221Z,2.17
2018-12-04T14:03:41.626Z,1.80
2018-12-04T14:06:11.132Z,2.27
2018-12-04T14:08:40.523Z,2.23
2018-12-04T14:11:10.016Z,2.07
2018-12-04T14:13:39.450Z,2.70
2018-12-04T14:16:09.522Z,2.73
2018-12-04T14:18:39.744Z,2.27
2018-12-04T14:21:09.338Z,2.73
2018-12-04T14:23:39.144Z,2.50
2018-12-04T14:26:08.892Z,2.50
2018-12-04T14:28:38.571Z,2.10
2018-12-04T14:31:08.266Z,2.73
2018-12-04T14:33:39.440Z,1.93
2018-12-04T14:36:09.236Z,2.27
2018-12-04T14:38:39.061Z,2.30
2018-12-04T14:41:08.689Z,2.10
2018-12-04T14:43:38.412Z,2.80
2018-12-04T14:46:08.180Z,2.77
2018-12-04T14:48:37.695Z,2.90
2018-12-04T14:51:08.713Z,2.53
2018-12-04T14:53:38.530Z,2.30
2018-12-04T14:56:08.140Z,2.47
2018-12-04T14:58:37.773Z,2.70
2018-12-04T15:01:07.466Z,2.40
2018-12-04T15:03:46.024Z,2.50
2018-12-04T15:06:16.102Z,3.58
2018-12-04T15:08:45.896Z,3.10
2018-12-04T15:11:15.479Z,3.52
2018-12-04T15:13:45.244Z,4.23
2018-12-04T15:16:14.943Z,4.03
2018-12-04T15:18:44.490Z,4.70
2018-12-04T15:21:14.881Z,4.22
2018-12-04T15:23:44.588Z,4.10
2018-12-04T15:26:14.316Z,4.43
2018-12-04T15:28:43.988Z,3.57
2018-12-04T15:31:13.925Z,3.30
2018-12-04T15:33:43.738Z,2.47
2018-12-04T15:36:13.246Z,2.90
2018-12-04T15:38:42.786Z,3.37
2018-12-04T15:41:12.643Z,2.50
2018-12-04T15:43:42.235Z,2.20
2018-12-04T15:46:11.640Z,3.08
2018-12-04T15:48:40.977Z,3.23
2018-12-04T15:51:10.566Z,3.25
2018-12-04T15:53:40.014Z,2.40
2018-12-04T15:56:09.475Z,3.67
2018-12-04T15:58:38.813Z,3.00
2018-12-04T16:03:55.717Z,4.80
2018-12-04T16:06:25.162Z,3.10
2018-12-04T16:08:54.515Z,2.80
2018-12-04T16:11:23.876Z,3.37
2018-12-04T16:13:53.285Z,3.53
2018-12-04T16:16:22.735Z,3.83
2018-12-04T16:18:55.027Z,2.72
2018-12-04T16:21:25.786Z,2.83
2018-12-04T16:23:55.289Z,4.10
2018-12-04T16:26:24.691Z,3.00
2018-12-04T16:28:54.070Z,2.67
2018-12-04T16:31:23.422Z,2.58
2018-12-04T16:33:52.834Z,2.80
2018-12-04T16:36:52.880Z,2.73
2018-12-04T16:39:22.442Z,2.83
2018-12-04T16:41:53.399Z,2.93
2018-12-04T16:44:23.141Z,2.50
2018-12-04T16:46:57.412Z,3.17
2018-12-04T16:49:26.962Z,3.30
2018-12-04T16:51:56.675Z,2.77
2018-12-04T16:54:26.232Z,3.87
2018-12-04T16:56:56.879Z,3.10
2018-12-04T16:59:26.476Z,3.03
2018-12-04T17:01:56.181Z,3.00
2018-12-04T17:04:26.176Z,3.60
2018-12-04T17:06:55.813Z,12.47
2018-12-04T17:09:25.351Z,11.00
2018-12-04T17:11:55.251Z,9.30
2018-12-04T17:14:24.841Z,6.20
2018-12-04T17:16:54.516Z,4.20
2018-12-04T17:19:24.209Z,4.30
2018-12-04T17:21:53.872Z,3.50
2018-12-04T17:24:23.560Z,3.42
2018-12-04T17:26:53.350Z,3.30
2018-12-04T17:29:23.083Z,3.22
2018-12-04T17:31:52.826Z,3.17
2018-12-04T17:34:22.903Z,4.20
2018-12-04T17:36:52.331Z,3.13
2018-12-04T17:39:21.856Z,3.50
2018-12-04T17:41:51.233Z,3.10
2018-12-04T17:44:21.307Z,3.83
2018-12-04T17:46:50.766Z,3.90
2018-12-04T17:49:20.156Z,3.93
2018-12-04T17:51:49.525Z,3.93
2018-12-04T17:54:19.077Z,3.90
2018-12-04T17:56:48.442Z,3.37
2018-12-04T17:59:17.800Z,3.67
2018-12-04T18:01:47.146Z,4.00
2018-12-04T18:04:16.475Z,3.80
2018-12-04T18:06:45.827Z,3.83
2018-12-04T18:09:16.372Z,4.10
2018-12-04T18:11:45.709Z,3.90
2018-12-04T18:14:16.292Z,3.70
2018-12-04T18:16:46.166Z,4.50
2018-12-04T18:19:15.836Z,4.00
2018-12-04T18:21:45.478Z,4.23
2018-12-04T18:24:16.454Z,4.57
2018-12-04T18:26:46.110Z,5.43
2018-12-04T18:29:15.760Z,5.67
2018-12-04T18:31:45.323Z,5.33
2018-12-04T18:34:15.056Z,5.27
2018-12-04T18:36:44.666Z,4.83
2018-12-04T18:39:14.389Z,4.72
2018-12-04T18:41:44.270Z,4.80
2018-12-04T18:44:14.387Z,4.37
2018-12-04T18:46:43.903Z,4.33
2018-12-04T18:49:13.501Z,3.87
2018-12-04T18:51:43.859Z,4.10
2018-12-04T18:54:14.155Z,4.03
2018-12-04T18:56:43.796Z,3.67
2018-12-04T18:59:13.342Z,3.60
2018-12-04T19:01:43.191Z,3.63
2018-12-04T19:04:12.899Z,4.07
2018-12-04T19:06:42.687Z,4.40
2018-12-04T19:09:12.508Z,3.58
2018-12-04T19:11:42.195Z,4.10
2018-12-04T19:14:11.929Z,4.53
2018-12-04T19:16:41.514Z,4.17
2018-12-04T19:21:36.154Z,4.40
2018-12-04T19:24:06.870Z,3.92
2018-12-04T19:26:36.751Z,4.03
2018-12-04T19:29:06.390Z,4.40
2018-12-04T19:31:36.215Z,4.67
2018-12-04T19:34:06.646Z,4.87
2018-12-04T19:36:36.141Z,5.23
2018-12-04T19:39:10.174Z,4.35
2018-12-04T19:41:40.464Z,4.87
2018-12-04T19:44:10.411Z,4.53
2018-12-04T19:46:40.000Z,4.20
2018-12-04T19:49:12.809Z,4.30
2018-12-04T19:51:42.290Z,4.90
2018-12-04T19:54:11.826Z,5.10
2018-12-04T19:56:41.591Z,4.90
2018-12-04T19:59:11.348Z,4.80
2018-12-04T20:01:40.900Z,6.03
2018-12-04T20:04:10.567Z,5.58
2018-12-04T20:06:40.561Z,5.07
2018-12-04T20:09:11.118Z,5.53
2018-12-04T20:11:40.812Z,5.93
2018-12-04T20:14:10.454Z,5.53
2018-12-04T20:16:40.107Z,5.57
2018-12-04T20:19:09.788Z,6.27
2018-12-04T20:21:39.468Z,5.27
2018-12-04T20:26:50.337Z,6.37
2018-12-04T20:29:20.158Z,6.62
2018-12-04T20:31:51.648Z,7.33
2018-12-04T20:34:22.293Z,7.23
2018-12-04T20:36:52.408Z,7.40
2018-12-04T20:39:23.034Z,7.62
2018-12-04T20:41:52.995Z,7.87
2018-12-04T20:44:22.830Z,8.77
2018-12-04T20:46:54.834Z,8.00
2018-12-04T20:52:05.808Z,8.87
2018-12-04T20:54:35.623Z,8.63
2018-12-04T20:57:06.598Z,10.20
2018-12-04T20:59:36.289Z,9.27
2018-12-04T21:02:07.284Z,10.77
2018-12-04T21:04:40.021Z,10.50
2018-12-04T21:07:10.827Z,10.37
2018-12-04T21:09:41.545Z,11.10
2018-12-04T21:12:12.494Z,11.40
2018-12-04T21:14:42.417Z,12.77
2018-12-04T21:17:12.222Z,11.93
2018-12-04T21:19:41.901Z,12.00
2018-12-04T21:22:13.612Z,12.08
2018-12-04T21:24:43.352Z,13.53
2018-12-04T21:29:25.344Z,12.25
2018-12-04T21:32:00.238Z,12.50
2018-12-04T21:34:36.054Z,12.80
2018-12-04T21:37:12.392Z,13.48
2018-12-04T21:39:49.098Z,14.23
2018-12-04T21:42:24.075Z,13.08
2018-12-04T21:44:59.035Z,12.70
2018-12-04T21:47:33.795Z,13.63
2018-12-04T21:52:43.087Z,14.97
2018-12-04T21:55:12.992Z,14.55
2018-12-04T21:57:43.563Z,15.27
2018-12-04T22:00:13.740Z,15.48
2018-12-04T22:02:43.463Z,15.97
2018-12-04T22:05:13.793Z,16.60
2018-12-04T22:07:43.508Z,16.77
2018-12-04T22:10:14.013Z,15.00
2018-12-04T22:12:44.390Z,16.70
2018-12-04T22:15:14.175Z,17.35
2018-12-04T22:17:45.205Z,18.97
2018-12-04T22:20:14.840Z,19.43
2018-12-04T22:22:45.826Z,19.87
2018-12-04T22:25:16.636Z,18.97
2018-12-04T22:27:46.575Z,20.73
2018-12-04T22:30:16.107Z,21.03
2018-12-04T22:32:46.178Z,21.90
2018-12-04T22:35:15.717Z,22.40
2018-12-04T22:37:45.086Z,19.23
2018-12-04T22:42:55.070Z,21.77
2018-12-04T22:45:26.125Z,21.60
2018-12-04T22:47:56.576Z,19.47
2018-12-04T22:50:26.067Z,21.17
2018-12-04T22:52:55.694Z,19.92
2018-12-04T22:55:25.110Z,19.63
2018-12-04T22:57:54.489Z,20.03
2018-12-04T23:00:36.264Z,19.35
2018-12-04T23:03:06.576Z,20.97
2018-12-04T23:05:36.119Z,19.50
2018-12-04T23:08:06.162Z,20.88
2018-12-04T23:10:35.515Z,19.40
2018-12-04T23:13:06.384Z,20.17
2018-12-04T23:15:35.824Z,19.30
2018-12-04T23:18:07.741Z,19.50
2018-12-04T23:20:37.125Z,19.03
2018-12-04T23:23:06.508Z,19.10
2018-12-04T23:25:36.037Z,19.30
2018-12-04T23:28:06.091Z,20.65
2018-12-04T23:30:39.601Z,21.13
2018-12-04T23:33:09.082Z,20.20
2018-12-04T23:35:38.388Z,21.03
2018-12-04T23:38:08.914Z,20.27
2018-12-04T23:40:38.372Z,22.77
2018-12-04T23:43:07.736Z,21.33
2018-12-04T23:45:37.357Z,22.60
2018-12-04T23:48:06.987Z,22.17
2018-12-04T23:50:36.432Z,20.97
2018-12-04T23:53:06.879Z,24.00
2018-12-04T23:55:36.834Z,23.77
2018-12-04T23:58:06.349Z,23.55
